Time;durP1;ratioP1;P1;durP2;ratioP2;P2;SDS_P1;SDS_P2;PMS_P1;PMS_P2;Temp;Humidity;BMP_temperature;BMP_pressure;BME280_temperature;BME280_humidity;BME280_pressure;Samples;Min_cycle;Max_cycle;Signal;HPM_P1;HPM_P2
2023/08/08 00:00:06;;;;;;;8.50;2.83;;;14.10;93.50;;;;;;5063807;28;20041;-71
2023/08/08 00:02:32;;;;;;;8.13;3.20;;;14.10;93.70;;;;;;5062980;28;20110;-71
2023/08/08 00:04:57;;;;;;;8.80;3.03;;;14.00;93.70;;;;;;5059416;28;20295;-71
2023/08/08 00:07:23;;;;;;;7.40;3.53;;;14.00;94.00;;;;;;5065283;28;20036;-71
2023/08/08 00:09:49;;;;;;;8.60;2.80;;;14.00;94.20;;;;;;5045228;28;20076;-71
2023/08/08 00:12:14;;;;;;;8.03;2.93;;;13.90;94.30;;;;;;5063116;28;20036;-71
2023/08/08 00:14:40;;;;;;;6.93;2.70;;;13.80;94.20;;;;;;5055917;28;20120;-71
2023/08/08 00:17:06;;;;;;;7.27;2.90;;;13.80;94.40;;;;;;5055828;28;20534;-71
2023/08/08 00:19:31;;;;;;;11.03;3.37;;;13.80;94.60;;;;;;5058851;28;20053;-71
2023/08/08 00:21:57;;;;;;;6.97;2.80;;;13.70;95.00;;;;;;5061687;28;20357;-71
2023/08/08 00:24:23;;;;;;;9.13;2.83;;;13.60;95.20;;;;;;5054859;28;20072;-71
2023/08/08 00:26:49;;;;;;;9.63;3.10;;;13.50;95.30;;;;;;5043602;28;20075;-71
2023/08/08 00:29:15;;;;;;;7.13;3.13;;;13.50;95.50;;;;;;5061702;28;20572;-71
2023/08/08 00:31:40;;;;;;;4.27;2.70;;;13.40;95.90;;;;;;5042062;28;20303;-71
2023/08/08 00:34:06;;;;;;;5.13;2.90;;;13.30;95.90;;;;;;5035848;28;20078;-71
2023/08/08 00:36:32;;;;;;;7.73;3.20;;;13.30;96.00;;;;;;5059970;28;20083;-71
2023/08/08 00:38:57;;;;;;;8.83;3.07;;;13.20;96.50;;;;;;5068446;28;20042;-71
2023/08/08 00:41:23;;;;;;;12.87;3.13;;;13.20;96.70;;;;;;5062071;28;20045;-71
2023/08/08 00:43:50;;;;;;;11.10;3.53;;;13.20;96.90;;;;;;5057274;28;20501;-71
2023/08/08 00:46:18;;;;;;;5.70;2.60;;;13.20;97.30;;;;;;5045437;28;20086;-71
2023/08/08 00:48:44;;;;;;;8.87;2.80;;;13.20;97.10;;;;;;5061171;28;20278;-71
2023/08/08 00:51:09;;;;;;;4.23;2.50;;;13.20;97.20;;;;;;5049669;28;20930;-71
2023/08/08 00:53:35;;;;;;;5.80;2.43;;;13.20;97.30;;;;;;5066604;28;20040;-71
2023/08/08 00:56:01;;;;;;;4.77;2.70;;;13.20;97.40;;;;;;5045757;28;20072;-71
2023/08/08 00:58:27;;;;;;;7.90;2.93;;;13.20;97.50;;;;;;5064695;28;20341;-71
2023/08/08 01:00:57;;;;;;;8.77;3.47;;;13.20;97.60;;;;;;5062634;28;20040;-71
2023/08/08 01:03:23;;;;;;;8.07;2.80;;;13.10;97.60;;;;;;5068344;28;21036;-71
2023/08/08 01:05:56;;;;;;;8.00;2.67;;;13.20;97.80;;;;;;5063350;28;20283;-71
2023/08/08 01:08:27;;;;;;;7.73;3.00;;;13.20;98.60;;;;;;5058629;28;20048;-71
2023/08/08 01:10:53;;;;;;;10.30;2.93;;;13.10;98.30;;;;;;5048942;28;20278;-71
2023/08/08 01:13:23;;;;;;;8.77;2.97;;;13.20;98.60;;;;;;5066544;28;20357;-71
2023/08/08 01:15:49;;;;;;;10.80;2.47;;;13.20;98.40;;;;;;5039737;28;21236;-71
2023/08/08 01:18:16;;;;;;;6.87;2.83;;;13.20;98.40;;;;;;5062074;28;20673;-71
2023/08/08 01:20:46;;;;;;;9.93;2.90;;;13.20;98.40;;;;;;5054775;28;20674;-71
2023/08/08 01:23:24;;;;;;;7.27;2.57;;;13.20;98.50;;;;;;5063890;28;20271;-70
2023/08/08 01:25:50;;;;;;;6.50;2.53;;;13.20;98.40;;;;;;5053663;28;20278;-71
2023/08/08 01:28:20;;;;;;;6.70;2.40;;;13.10;98.40;;;;;;5060896;28;20290;-71
2023/08/08 01:30:46;;;;;;;6.63;2.30;;;13.10;98.50;;;;;;5040373;28;20933;-71
2023/08/08 01:33:12;;;;;;;8.53;2.70;;;13.10;98.50;;;;;;5063697;28;20370;-71
2023/08/08 01:35:40;;;;;;;8.47;2.60;;;13.00;98.50;;;;;;5045591;28;20509;-71
2023/08/08 01:38:16;;;;;;;9.27;2.67;;;13.00;98.60;;;;;;5063515;28;20071;-71
2023/08/08 01:40:44;;;;;;;6.87;2.07;;;13.00;98.60;;;;;;5066177;28;20386;-71
2023/08/08 01:43:10;;;;;;;7.40;2.43;;;13.00;98.50;;;;;;5061742;28;20283;-71
2023/08/08 01:45:37;;;;;;;5.27;2.20;;;13.00;98.70;;;;;;5067326;28;20287;-71
2023/08/08 01:48:10;;;;;;;7.97;2.43;;;13.00;98.60;;;;;;5059141;28;20339;-71
2023/08/08 01:50:37;;;;;;;11.27;2.93;;;13.00;98.90;;;;;;5066768;28;20282;-71
2023/08/08 01:53:03;;;;;;;13.10;2.20;;;13.00;98.80;;;;;;5069992;28;20755;-71
2023/08/08 01:55:30;;;;;;;6.63;1.77;;;13.10;98.90;;;;;;5059027;28;20291;-71
2023/08/08 01:57:55;;;;;;;5.33;1.80;;;13.10;98.80;;;;;;5055233;28;20295;-71
2023/08/08 02:00:21;;;;;;;7.10;2.33;;;13.20;98.80;;;;;;5062857;28;20341;-71
2023/08/08 02:02:47;;;;;;;9.73;2.30;;;13.20;98.70;;;;;;5067572;28;20075;-71
2023/08/08 02:05:13;;;;;;;7.53;2.30;;;13.20;98.50;;;;;;5067626;28;20033;-71
2023/08/08 02:07:38;;;;;;;5.63;1.83;;;13.20;98.40;;;;;;5059450;28;20143;-70
2023/08/08 02:10:04;;;;;;;9.83;2.80;;;13.30;98.30;;;;;;5061218;28;20117;-71
2023/08/08 02:12:30;;;;;;;5.33;2.10;;;13.30;98.40;;;;;;5057884;28;20044;-71
2023/08/08 02:14:57;;;;;;;5.47;1.80;;;13.30;98.40;;;;;;5057079;28;20287;-71
2023/08/08 02:17:23;;;;;;;6.27;2.03;;;13.30;98.30;;;;;;5038882;28;20033;-71
2023/08/08 02:19:48;;;;;;;8.93;2.27;;;13.30;98.20;;;;;;5058202;28;20697;-71
2023/08/08 02:22:14;;;;;;;7.13;2.20;;;13.30;98.30;;;;;;5047419;28;20039;-71
2023/08/08 02:24:40;;;;;;;8.67;2.20;;;13.30;98.30;;;;;;5059739;28;20103;-71
2023/08/08 02:27:06;;;;;;;8.03;2.00;;;13.40;98.30;;;;;;5040842;28;20680;-71
2023/08/08 02:29:31;;;;;;;7.17;1.77;;;13.40;98.20;;;;;;5054660;28;20485;-71
2023/08/08 02:31:57;;;;;;;6.90;1.80;;;13.40;98.00;;;;;;5057660;28;20499;-71
2023/08/08 02:34:23;;;;;;;11.60;1.77;;;13.40;97.80;;;;;;5041638;28;20047;-71
2023/08/08 02:36:49;;;;;;;4.37;1.83;;;13.40;97.80;;;;;;5059068;28;20043;-71
2023/08/08 02:39:15;;;;;;;7.27;1.90;;;13.40;97.70;;;;;;5048370;28;20303;-71
2023/08/08 02:41:41;;;;;;;6.87;1.73;;;13.40;97.80;;;;;;5047881;28;20037;-71
2023/08/08 02:44:07;;;;;;;5.20;1.47;;;13.40;97.80;;;;;;5063812;28;20068;-71
2023/08/08 02:46:33;;;;;;;10.20;1.73;;;13.40;97.70;;;;;;5053890;28;20120;-71
2023/08/08 02:48:59;;;;;;;5.93;1.60;;;13.40;97.60;;;;;;5057090;28;20386;-71
2023/08/08 02:51:24;;;;;;;6.87;1.33;;;13.30;97.20;;;;;;5061373;28;20086;-71
2023/08/08 02:53:50;;;;;;;6.20;1.70;;;13.20;97.10;;;;;;5050066;28;20109;-71
2023/08/08 02:56:16;;;;;;;6.20;1.63;;;13.20;97.00;;;;;;5054780;28;20516;-71
2023/08/08 02:58:41;;;;;;;11.17;1.53;;;13.10;96.90;;;;;;5035046;28;20044;-71
2023/08/08 03:01:07;;;;;;;6.93;1.33;;;13.00;97.00;;;;;;5060325;28;20037;-71
2023/08/08 03:03:33;;;;;;;8.93;1.60;;;13.00;97.00;;;;;;5057329;28;20490;-71
2023/08/08 03:06:00;;;;;;;10.17;1.90;;;12.90;97.10;;;;;;5057308;28;20314;-71
2023/08/08 03:08:27;;;;;;;5.87;1.27;;;12.90;97.20;;;;;;5045811;28;20123;-71
2023/08/08 03:10:53;;;;;;;8.53;1.70;;;12.80;97.40;;;;;;5039027;28;20635;-71
2023/08/08 03:13:19;;;;;;;6.70;1.93;;;12.80;97.60;;;;;;5069498;28;20385;-71
2023/08/08 03:15:45;;;;;;;6.23;1.30;;;12.80;97.60;;;;;;5055722;28;20055;-71
2023/08/08 03:18:11;;;;;;;5.27;1.87;;;12.80;98.00;;;;;;5057167;28;20287;-71
2023/08/08 03:20:36;;;;;;;7.10;1.23;;;12.70;98.00;;;;;;5033987;28;20771;-71
2023/08/08 03:23:02;;;;;;;8.23;1.37;;;12.70;98.20;;;;;;5054367;28;20041;-71
2023/08/08 03:25:28;;;;;;;5.80;1.20;;;12.70;98.50;;;;;;5058598;28;20574;-71
2023/08/08 03:27:54;;;;;;;8.30;1.67;;;12.70;98.50;;;;;;5039119;28;20025;-71
2023/08/08 03:30:19;;;;;;;8.77;1.60;;;12.70;98.40;;;;;;5049759;28;20148;-71
2023/08/08 03:32:45;;;;;;;2.77;1.17;;;12.70;98.40;;;;;;5040537;28;20131;-71
2023/08/08 03:35:11;;;;;;;7.20;1.70;;;12.70;98.60;;;;;;5057388;28;20052;-71
2023/08/08 03:37:36;;;;;;;7.57;1.50;;;12.70;98.30;;;;;;5065442;28;20071;-71
2023/08/08 03:40:02;;;;;;;6.73;1.40;;;12.70;98.40;;;;;;5058951;28;20033;-71
2023/08/08 03:42:28;;;;;;;10.20;1.50;;;12.80;98.60;;;;;;5041471;28;20386;-71
2023/08/08 03:44:54;;;;;;;3.93;1.13;;;12.80;98.50;;;;;;5053399;28;20279;-71
2023/08/08 03:47:20;;;;;;;9.00;1.47;;;12.80;98.50;;;;;;5062555;28;20124;-71
2023/08/08 03:49:45;;;;;;;5.67;1.30;;;12.80;98.40;;;;;;5063788;28;20040;-71
2023/08/08 03:52:11;;;;;;;6.07;1.47;;;12.80;98.30;;;;;;5056834;28;20198;-71
2023/08/08 03:54:37;;;;;;;8.27;1.30;;;12.80;98.30;;;;;;5056926;28;20055;-71
2023/08/08 03:57:03;;;;;;;8.73;1.70;;;12.70;98.10;;;;;;5053046;28;20037;-71
2023/08/08 03:59:28;;;;;;;5.77;1.37;;;12.70;98.10;;;;;;5064569;28;20037;-71
2023/08/08 04:01:54;;;;;;;6.27;1.10;;;12.70;98.10;;;;;;5042902;28;20127;-71
2023/08/08 04:04:19;;;;;;;4.03;1.13;;;12.60;98.10;;;;;;5035985;28;20431;-71
2023/08/08 04:06:45;;;;;;;4.83;1.07;;;12.60;98.20;;;;;;5061482;28;20040;-71
2023/08/08 04:09:11;;;;;;;3.93;1.00;;;12.60;98.20;;;;;;5062737;28;20107;-71
2023/08/08 04:11:36;;;;;;;7.83;1.43;;;12.60;98.10;;;;;;5062753;28;20563;-71
2023/08/08 04:14:03;;;;;;;6.30;1.17;;;12.70;98.00;;;;;;5051921;28;20064;-71
2023/08/08 04:16:28;;;;;;;3.77;0.70;;;12.70;97.80;;;;;;5057958;28;20040;-71
2023/08/08 04:18:54;;;;;;;5.47;0.90;;;12.70;97.70;;;;;;5035608;28;20283;-71
2023/08/08 04:21:20;;;;;;;6.33;1.13;;;12.80;97.50;;;;;;5044929;28;20094;-71
2023/08/08 04:23:45;;;;;;;3.67;0.67;;;12.80;97.40;;;;;;5058095;28;20496;-71
2023/08/08 04:26:11;;;;;;;5.47;1.10;;;12.80;96.70;;;;;;5057336;28;20438;-71
2023/08/08 04:28:37;;;;;;;7.40;0.80;;;12.90;96.90;;;;;;5036061;28;20048;-71
2023/08/08 04:31:02;;;;;;;4.63;0.70;;;13.00;96.80;;;;;;5051061;28;20413;-71
2023/08/08 04:33:28;;;;;;;4.77;0.90;;;13.10;96.80;;;;;;5060032;28;20036;-71
2023/08/08 04:35:54;;;;;;;4.57;1.10;;;13.20;97.20;;;;;;5036749;28;20100;-71
2023/08/08 04:38:19;;;;;;;4.53;0.70;;;13.20;97.20;;;;;;5054061;28;20040;-71
2023/08/08 04:40:45;;;;;;;7.47;1.00;;;13.30;97.20;;;;;;5059545;28;20078;-72
2023/08/08 04:43:11;;;;;;;4.27;1.33;;;13.20;97.30;;;;;;5036447;28;20370;-72
2023/08/08 04:45:36;;;;;;;7.07;1.30;;;13.20;97.60;;;;;;5044779;28;20048;-72
2023/08/08 04:48:02;;;;;;;2.97;1.13;;;13.20;98.30;;;;;;5062189;28;20447;-73
2023/08/08 04:50:28;;;;;;;5.13;1.13;;;13.10;98.80;;;;;;5057950;28;20041;-72
2023/08/08 04:52:54;;;;;;;8.07;1.20;;;13.10;98.90;;;;;;5043469;28;20024;-72
2023/08/08 04:55:19;;;;;;;7.00;1.30;;;13.20;99.80;;;;;;5039295;28;20037;-72
2023/08/08 04:57:45;;;;;;;5.77;1.53;;;13.20;99.90;;;;;;5051234;28;20078;-72
2023/08/08 05:00:11;;;;;;;6.97;1.20;;;13.20;99.90;;;;;;5053529;28;20119;-72
2023/08/08 05:02:39;;;;;;;7.70;1.30;;;13.20;99.40;;;;;;5053637;28;20512;-72
2023/08/08 05:05:05;;;;;;;6.73;1.43;;;13.20;99.20;;;;;;5059170;28;20283;-72
2023/08/08 05:07:31;;;;;;;6.73;1.30;;;13.20;99.30;;;;;;5061496;28;20270;-72
2023/08/08 05:09:56;;;;;;;6.23;1.03;;;13.20;99.30;;;;;;5048050;28;20786;-72
2023/08/08 05:12:22;;;;;;;7.60;1.50;;;13.20;99.60;;;;;;5041037;28;20077;-72
2023/08/08 05:14:48;;;;;;;7.20;1.43;;;13.30;99.80;;;;;;5040886;28;20040;-72
2023/08/08 05:17:13;;;;;;;6.20;1.13;;;13.30;99.90;;;;;;5064163;28;20104;-72
2023/08/08 05:19:39;;;;;;;7.73;1.10;;;13.30;99.90;;;;;;5049478;28;20120;-72
2023/08/08 05:22:05;;;;;;;5.70;1.37;;;13.30;99.90;;;;;;5054008;28;20033;-72
2023/08/08 05:24:31;;;;;;;5.07;1.20;;;13.40;99.90;;;;;;5064744;28;20111;-72
2023/08/08 05:26:57;;;;;;;10.10;1.60;;;13.40;99.90;;;;;;5054771;28;20362;-72
2023/08/08 05:29:22;;;;;;;6.77;1.07;;;13.50;99.90;;;;;;5049483;28;20110;-72
2023/08/08 05:31:48;;;;;;;6.50;1.47;;;13.50;99.90;;;;;;5033438;28;20096;-72
2023/08/08 05:34:14;;;;;;;6.47;1.20;;;13.50;99.90;;;;;;5055692;28;20124;-72
2023/08/08 05:36:40;;;;;;;6.20;0.90;;;13.60;99.90;;;;;;5063413;28;20359;-73
2023/08/08 05:39:06;;;;;;;5.67;0.97;;;13.60;99.90;;;;;;5063503;28;20051;-73
2023/08/08 05:41:33;;;;;;;6.00;0.90;;;13.70;99.70;;;;;;5066041;28;20045;-74
2023/08/08 05:43:59;;;;;;;12.70;1.33;;;13.70;99.60;;;;;;5067199;28;20294;-74
2023/08/08 05:46:24;;;;;;;5.07;0.87;;;13.80;99.30;;;;;;5051404;28;20283;-73
2023/08/08 05:48:50;;;;;;;5.07;0.97;;;13.90;99.30;;;;;;5044119;28;20041;-74
2023/08/08 05:51:16;;;;;;;6.33;1.30;;;13.90;98.90;;;;;;5065480;28;20043;-72
2023/08/08 05:53:42;;;;;;;6.97;1.30;;;14.00;98.40;;;;;;5043835;28;20036;-71
2023/08/08 05:56:08;;;;;;;5.33;0.70;;;14.10;98.10;;;;;;5053584;28;20042;-71
2023/08/08 05:58:36;;;;;;;6.97;1.10;;;14.20;97.10;;;;;;5060724;28;20044;-71
2023/08/08 06:01:05;;;;;;;9.50;1.77;;;14.30;96.60;;;;;;5056425;28;20666;-71
2023/08/08 06:03:32;;;;;;;5.50;0.80;;;14.40;96.60;;;;;;5048264;28;20283;-71
2023/08/08 06:05:57;;;;;;;5.10;0.80;;;14.40;95.60;;;;;;5053784;28;20288;-71
2023/08/08 06:08:23;;;;;;;6.43;1.10;;;14.50;95.70;;;;;;5040029;28;20365;-71
2023/08/08 06:10:49;;;;;;;6.40;0.80;;;14.50;95.80;;;;;;5037884;28;20115;-71
2023/08/08 06:13:14;;;;;;;4.77;1.37;;;14.60;95.70;;;;;;5056542;28;20540;-71
2023/08/08 06:15:40;;;;;;;8.30;0.90;;;14.60;94.50;;;;;;5057844;28;20048;-70
2023/08/08 06:18:06;;;;;;;3.27;0.87;;;14.70;95.10;;;;;;5060346;28;20041;-71
2023/08/08 06:20:32;;;;;;;4.67;0.87;;;14.70;94.30;;;;;;5061723;28;20048;-70
2023/08/08 06:22:57;;;;;;;7.80;0.90;;;14.80;94.10;;;;;;5063173;28;20044;-70
2023/08/08 06:25:23;;;;;;;6.10;1.17;;;14.90;94.00;;;;;;5048702;28;20045;-70
2023/08/08 06:27:49;;;;;;;8.77;0.93;;;14.90;92.10;;;;;;5055451;28;20044;-72
2023/08/08 06:30:15;;;;;;;10.43;1.83;;;15.00;93.10;;;;;;5039141;28;20505;-71
2023/08/08 06:32:40;;;;;;;4.83;0.70;;;15.10;93.40;;;;;;5037949;28;20283;-71
2023/08/08 06:35:07;;;;;;;4.07;0.83;;;15.20;92.50;;;;;;5037619;28;20040;-71
2023/08/08 06:37:32;;;;;;;9.93;2.40;;;15.30;91.50;;;;;;5055447;28;20070;-71
2023/08/08 06:39:58;;;;;;;7.03;1.10;;;15.40;92.10;;;;;;5054580;28;20434;-71
2023/08/08 06:42:24;;;;;;;14.97;2.30;;;15.50;91.10;;;;;;5067051;28;20122;-71
2023/08/08 06:44:49;;;;;;;8.33;1.20;;;15.60;89.70;;;;;;5044722;28;20037;-71
2023/08/08 06:47:15;;;;;;;7.90;1.30;;;15.70;88.70;;;;;;5048346;28;20052;-71
2023/08/08 06:49:41;;;;;;;6.60;0.80;;;15.90;89.30;;;;;;5054008;28;20707;-71
2023/08/08 06:52:06;;;;;;;7.53;1.20;;;16.00;87.50;;;;;;5061123;28;20040;-72
2023/08/08 06:54:33;;;;;;;3.73;1.20;;;16.20;85.60;;;;;;5056828;28;20087;-72
2023/08/08 06:56:59;;;;;;;5.23;1.00;;;16.30;86.40;;;;;;5046347;28;20044;-71
2023/08/08 06:59:26;;;;;;;8.40;1.10;;;16.40;84.80;;;;;;5058378;28;20859;-72
2023/08/08 07:01:52;;;;;;;5.47;0.57;;;16.40;86.10;;;;;;5035720;28;20063;-72
2023/08/08 07:04:18;;;;;;;4.50;0.60;;;16.50;85.60;;;;;;5038199;28;20770;-72
2023/08/08 07:06:44;;;;;;;5.73;1.13;;;16.50;85.50;;;;;;5060923;28;20032;-72
2023/08/08 07:09:10;;;;;;;4.93;0.60;;;16.50;84.40;;;;;;5055947;28;20075;-72
2023/08/08 07:11:37;;;;;;;6.30;1.10;;;16.50;84.20;;;;;;5056505;28;20295;-72
2023/08/08 07:14:03;;;;;;;4.67;0.90;;;16.50;82.80;;;;;;5044019;28;20288;-72
2023/08/08 07:16:29;;;;;;;6.10;0.90;;;16.50;83.80;;;;;;5046288;28;20741;-72
2023/08/08 07:18:54;;;;;;;6.93;0.50;;;16.50;84.50;;;;;;5038717;28;20059;-71
2023/08/08 07:21:20;;;;;;;6.23;0.80;;;16.60;83.50;;;;;;5050356;28;20052;-72
2023/08/08 07:23:46;;;;;;;5.10;0.80;;;16.60;84.60;;;;;;5051737;28;20098;-72
2023/08/08 07:26:12;;;;;;;7.03;0.63;;;16.70;83.50;;;;;;5043982;28;20428;-72
2023/08/08 07:28:38;;;;;;;4.70;0.90;;;16.70;83.40;;;;;;5050589;28;20512;-72
2023/08/08 07:31:04;;;;;;;4.10;1.00;;;16.80;83.20;;;;;;5037068;28;20307;-72
2023/08/08 07:33:29;;;;;;;7.23;0.93;;;16.80;82.90;;;;;;5053675;28;20568;-71
2023/08/08 07:35:55;;;;;;;8.37;0.77;;;16.80;82.90;;;;;;5040089;28;20036;-72
2023/08/08 07:38:21;;;;;;;5.50;0.80;;;16.90;82.80;;;;;;5055918;28;20047;-72
2023/08/08 07:40:47;;;;;;;4.23;0.60;;;16.90;81.40;;;;;;5050493;28;20044;-72
2023/08/08 07:43:13;;;;;;;9.67;1.30;;;16.90;81.40;;;;;;5039681;28;20377;-72
2023/08/08 07:45:39;;;;;;;3.30;0.63;;;16.80;79.90;;;;;;5058312;28;20288;-71
2023/08/08 07:48:05;;;;;;;5.63;0.90;;;16.90;81.70;;;;;;5038904;28;20727;-71
2023/08/08 07:50:31;;;;;;;5.07;0.90;;;16.90;82.10;;;;;;5058439;28;20041;-72
2023/08/08 07:52:57;;;;;;;4.63;0.90;;;16.90;82.00;;;;;;5055192;28;20041;-72
2023/08/08 07:55:22;;;;;;;6.30;1.00;;;16.90;81.70;;;;;;5054558;28;20374;-72
2023/08/08 07:57:48;;;;;;;6.67;0.80;;;17.00;82.80;;;;;;5036748;28;20131;-72
2023/08/08 08:00:18;;;;;;;6.20;2.00;;;17.00;81.50;;;;;;5056843;28;20060;-72
2023/08/08 08:02:45;;;;;;;7.73;1.27;;;17.00;82.50;;;;;;5053189;28;20072;-73
2023/08/08 08:05:11;;;;;;;6.60;0.87;;;17.00;80.20;;;;;;5070528;28;20366;-73
2023/08/08 08:07:38;;;;;;;8.00;1.10;;;17.20;81.70;;;;;;5062222;28;20291;-73
2023/08/08 08:10:06;;;;;;;8.57;0.90;;;17.40;80.20;;;;;;5049163;28;20310;-73
2023/08/08 08:12:32;;;;;;;7.33;0.93;;;17.50;80.60;;;;;;5059948;28;20286;-73
2023/08/08 08:14:58;;;;;;;8.37;0.77;;;17.50;79.10;;;;;;5062904;28;20454;-73
2023/08/08 08:17:24;;;;;;;8.30;1.03;;;17.50;79.70;;;;;;5046439;28;20282;-73
2023/08/08 08:19:51;;;;;;;8.00;1.07;;;17.50;78.90;;;;;;5065769;28;20306;-72
2023/08/08 08:22:17;;;;;;;3.70;0.60;;;17.60;78.80;;;;;;5060429;28;20048;-73
2023/08/08 08:24:43;;;;;;;4.40;0.70;;;17.80;78.60;;;;;;5048142;28;20336;-72
2023/08/08 08:27:08;;;;;;;6.53;0.67;;;17.90;77.10;;;;;;5042861;28;20287;-73
2023/08/08 08:29:34;;;;;;;5.30;0.77;;;18.10;76.90;;;;;;5056087;28;20041;-74
2023/08/08 08:32:00;;;;;;;3.20;0.60;;;18.30;77.50;;;;;;5055883;28;20055;-72
2023/08/08 08:34:25;;;;;;;4.03;0.40;;;18.40;76.40;;;;;;5063598;28;20051;-73
2023/08/08 08:36:51;;;;;;;3.07;0.50;;;18.40;75.30;;;;;;5064951;28;20257;-73
2023/08/08 08:39:17;;;;;;;4.83;0.90;;;18.30;73.10;;;;;;5062362;28;20052;-73
2023/08/08 08:41:48;;;;;;;4.57;0.70;;;18.20;73.40;;;;;;5055152;28;20037;-73
2023/08/08 08:44:16;;;;;;;6.20;0.93;;;18.10;74.80;;;;;;5036828;28;20048;-73
2023/08/08 08:46:42;;;;;;;3.63;0.60;;;18.10;75.00;;;;;;5038081;28;20044;-73
2023/08/08 08:49:10;;;;;;;3.73;0.40;;;18.10;74.60;;;;;;5059855;28;20041;-73
2023/08/08 08:51:36;;;;;;;7.00;0.87;;;18.10;74.90;;;;;;5044872;28;20454;-74
2023/08/08 08:54:03;;;;;;;3.93;0.80;;;18.10;75.60;;;;;;5070064;28;20064;-73
2023/08/08 08:56:29;;;;;;;5.97;0.90;;;18.10;75.60;;;;;;5067178;28;20068;-73
2023/08/08 08:58:55;;;;;;;8.07;0.90;;;18.00;74.50;;;;;;5050114;28;20291;-73
2023/08/08 09:01:23;;;;;;;5.57;0.70;;;17.80;75.70;;;;;;5040818;28;20738;-72
2023/08/08 09:03:49;;;;;;;4.43;0.73;;;17.70;77.70;;;;;;5042223;28;20345;-73
2023/08/08 09:06:16;;;;;;;5.30;0.83;;;17.60;77.80;;;;;;5062708;28;20041;-72
2023/08/08 09:08:42;;;;;;;4.80;0.70;;;17.60;79.10;;;;;;5045831;28;20605;-72
2023/08/08 09:11:08;;;;;;;4.80;0.80;;;17.60;78.00;;;;;;5059295;28;20377;-73
2023/08/08 09:13:40;;;;;;;3.87;0.50;;;17.60;78.40;;;;;;5057095;28;20049;-73
2023/08/08 09:16:07;;;;;;;5.77;0.83;;;17.60;79.40;;;;;;5059953;28;20115;-72
2023/08/08 09:18:33;;;;;;;3.33;0.63;;;17.80;79.00;;;;;;5058967;28;20291;-72
2023/08/08 09:20:59;;;;;;;3.70;0.90;;;18.00;78.50;;;;;;5047291;28;20372;-72
2023/08/08 09:23:25;;;;;;;7.90;1.07;;;18.20;76.30;;;;;;5040402;28;20055;-73
2023/08/08 09:25:51;;;;;;;4.63;0.73;;;18.20;75.00;;;;;;5040784;28;20291;-72
2023/08/08 09:28:17;;;;;;;4.93;0.90;;;18.10;75.70;;;;;;5056149;28;20044;-72
2023/08/08 09:30:44;;;;;;;6.67;0.80;;;18.20;75.10;;;;;;5037078;28;20049;-72
2023/08/08 09:33:11;;;;;;;6.53;0.93;;;18.40;74.70;;;;;;5063334;28;20064;-72
2023/08/08 09:35:40;;;;;;;7.87;0.80;;;18.40;73.20;;;;;;5055452;28;20060;-72
2023/08/08 09:38:07;;;;;;;5.47;0.90;;;18.30;73.40;;;;;;5056109;28;20093;-72
2023/08/08 09:40:33;;;;;;;4.47;0.80;;;18.20;73.40;;;;;;5065439;28;20083;-72
2023/08/08 09:42:59;;;;;;;7.10;1.07;;;18.30;73.80;;;;;;5061629;28;20029;-72
2023/08/08 09:45:24;;;;;;;4.40;0.90;;;18.30;74.60;;;;;;5066312;28;20036;-72
2023/08/08 09:47:52;;;;;;;3.00;0.77;;;18.20;73.60;;;;;;5064374;28;20069;-72
2023/08/08 09:50:19;;;;;;;3.87;0.67;;;18.00;73.70;;;;;;5060284;28;20049;-72
2023/08/08 09:52:46;;;;;;;6.60;1.00;;;17.90;73.80;;;;;;5058645;28;20068;-72
2023/08/08 09:55:14;;;;;;;5.00;0.60;;;17.60;72.60;;;;;;5054391;28;20448;-73
2023/08/08 09:57:41;;;;;;;4.30;0.90;;;17.50;73.20;;;;;;5057521;28;20283;-72
2023/08/08 10:00:15;;;;;;;3.60;0.63;;;17.60;74.70;;;;;;5061256;28;20311;-72
2023/08/08 10:02:44;;;;;;;7.47;1.67;;;17.80;74.60;;;;;;5059871;28;20333;-72
2023/08/08 10:05:12;;;;;;;5.80;0.90;;;18.10;74.30;;;;;;5049579;28;20055;-72
2023/08/08 10:07:39;;;;;;;8.40;1.30;;;18.30;73.40;;;;;;5049620;28;20287;-72
2023/08/08 10:10:08;;;;;;;5.00;0.90;;;18.40;72.10;;;;;;5061177;28;20735;-72
2023/08/08 10:12:33;;;;;;;6.27;1.07;;;18.30;70.50;;;;;;5041244;28;20055;-72
2023/08/08 10:15:00;;;;;;;6.63;1.00;;;18.00;71.20;;;;;;5045444;28;20279;-72
2023/08/08 10:17:26;;;;;;;6.77;0.67;;;17.90;71.70;;;;;;5059692;28;20111;-72
2023/08/08 10:19:55;;;;;;;3.47;0.70;;;17.80;70.70;;;;;;5058107;28;20761;-72
2023/08/08 10:22:23;;;;;;;3.50;0.70;;;17.70;69.30;;;;;;5057521;28;20043;-72
2023/08/08 10:24:53;;;;;;;8.10;0.90;;;17.80;71.60;;;;;;5059558;28;20307;-72
2023/08/08 10:27:35;;;;;;;3.77;0.73;;;17.90;71.40;;;;;;5061055;28;20313;-71
2023/08/08 10:30:10;;;;;;;4.40;0.63;;;18.00;69.90;;;;;;5055131;28;20710;-72
2023/08/08 10:32:43;;;;;;;4.57;0.85;;;18.00;69.10;;;;;;5063118;28;20283;-71
2023/08/08 10:35:11;;;;;;;6.83;1.00;;;18.10;69.30;;;;;;5052016;28;20590;-69
2023/08/08 10:37:39;;;;;;;6.67;0.80;;;18.30;70.30;;;;;;5055125;28;20290;-70
2023/08/08 10:40:07;;;;;;;7.77;1.17;;;18.70;69.10;;;;;;5044643;28;20303;-70
2023/08/08 10:42:43;;;;;;;5.20;1.20;;;18.90;68.70;;;;;;5061885;28;20306;-70
2023/08/08 10:45:13;;;;;;;3.07;0.50;;;19.00;66.90;;;;;;5053396;28;20315;-70
2023/08/08 10:47:39;;;;;;;5.83;0.70;;;18.90;65.00;;;;;;5057908;28;20059;-70
2023/08/08 10:50:16;;;;;;;3.53;0.70;;;19.00;66.60;;;;;;5053477;28;20051;-70
2023/08/08 10:52:54;;;;;;;4.07;0.50;;;19.20;64.60;;;;;;5047658;28;20044;-71
2023/08/08 10:55:26;;;;;;;8.83;1.10;;;19.30;65.50;;;;;;5035064;28;20044;-70
2023/08/08 10:58:10;;;;;;;4.47;0.80;;;19.30;66.30;;;;;;5054068;28;20036;-71
2023/08/08 11:00:41;;;;;;;5.30;0.73;;;19.30;66.30;;;;;;5037927;28;20120;-70
2023/08/08 11:03:08;;;;;;;3.53;0.63;;;19.10;65.90;;;;;;5056563;28;20113;-70
2023/08/08 11:05:36;;;;;;;1.57;0.40;;;19.00;64.00;;;;;;5043478;28;20099;-70
2023/08/08 11:08:05;;;;;;;4.23;1.07;;;19.10;64.20;;;;;;5061574;28;20048;-70
2023/08/08 11:10:39;;;;;;;3.33;0.60;;;19.10;62.20;;;;;;5051561;28;20550;-70
2023/08/08 11:13:06;;;;;;;7.10;0.77;;;18.90;62.80;;;;;;5059262;28;20702;-70
2023/08/08 11:15:33;;;;;;;6.03;0.57;;;18.70;63.70;;;;;;5042675;28;20051;-70
2023/08/08 11:18:00;;;;;;;4.47;0.67;;;18.50;64.30;;;;;;5039290;28;20090;-70
2023/08/08 11:20:33;;;;;;;5.40;0.60;;;18.30;65.40;;;;;;5052962;28;20041;-71
2023/08/08 11:23:00;;;;;;;6.27;0.87;;;18.20;64.70;;;;;;5048883;28;20037;-72
2023/08/08 11:25:27;;;;;;;3.53;0.70;;;18.20;66.10;;;;;;5036192;28;20135;-71
2023/08/08 11:27:54;;;;;;;10.03;1.13;;;18.50;66.80;;;;;;5059453;28;20307;-71
2023/08/08 11:30:20;;;;;;;7.60;0.83;;;18.90;66.60;;;;;;5041435;28;20059;-71
2023/08/08 11:32:47;;;;;;;5.93;0.67;;;19.20;65.50;;;;;;5055952;28;20044;-71
2023/08/08 11:35:22;;;;;;;7.57;1.03;;;19.40;62.90;;;;;;5039049;28;20044;-71
2023/08/08 11:37:52;;;;;;;8.35;0.77;;;19.60;64.30;;;;;;5036896;28;20067;-71
2023/08/08 11:40:19;;;;;;;4.97;0.80;;;19.60;64.20;;;;;;5039293;28;20751;-71
2023/08/08 11:42:46;;;;;;;4.90;0.70;;;19.40;63.10;;;;;;5060470;28;20063;-71
2023/08/08 11:45:12;;;;;;;6.60;0.77;;;19.50;63.10;;;;;;5059745;28;20044;-71
2023/08/08 11:47:42;;;;;;;4.30;0.97;;;19.70;64.50;;;;;;5046237;28;20503;-71
2023/08/08 11:50:10;;;;;;;8.07;1.10;;;19.90;62.50;;;;;;5055356;28;20466;-71
2023/08/08 11:52:43;;;;;;;3.70;0.60;;;19.90;62.00;;;;;;5050721;28;20064;-71
2023/08/08 11:55:09;;;;;;;3.67;0.53;;;19.90;62.70;;;;;;5061603;28;20036;-71
2023/08/08 11:57:37;;;;;;;5.33;0.60;;;19.90;60.20;;;;;;5040331;28;20044;-71
2023/08/08 12:00:07;;;;;;;6.13;1.20;;;19.70;60.80;;;;;;5053771;28;20103;-71
2023/08/08 12:02:34;;;;;;;4.20;0.63;;;19.70;62.90;;;;;;5059300;28;20036;-71
2023/08/08 12:05:07;;;;;;;4.10;0.80;;;19.80;63.60;;;;;;5052831;28;20108;-71
2023/08/08 12:07:34;;;;;;;3.37;0.50;;;20.20;63.00;;;;;;5059380;28;20064;-71
2023/08/08 12:10:00;;;;;;;3.77;0.80;;;20.20;59.40;;;;;;5051920;28;20032;-71
2023/08/08 12:12:27;;;;;;;5.27;0.60;;;19.90;59.80;;;;;;5052663;28;20052;-71
2023/08/08 12:14:54;;;;;;;4.93;0.60;;;19.50;59.90;;;;;;5045749;28;20040;-71
2023/08/08 12:17:21;;;;;;;2.93;0.60;;;19.20;61.60;;;;;;5052156;28;20483;-71
2023/08/08 12:19:48;;;;;;;6.83;1.03;;;19.10;62.20;;;;;;5051882;28;20044;-71
2023/08/08 12:22:14;;;;;;;7.83;0.60;;;19.30;62.70;;;;;;5051690;28;20032;-70
2023/08/08 12:24:40;;;;;;;6.40;1.17;;;19.40;61.60;;;;;;5058012;28;20591;-71
2023/08/08 12:27:06;;;;;;;4.27;0.53;;;19.30;61.60;;;;;;5061052;28;20129;-71
2023/08/08 12:29:32;;;;;;;3.27;0.40;;;19.20;61.20;;;;;;5034773;28;20047;-71
2023/08/08 12:31:57;;;;;;;4.40;0.60;;;19.10;61.30;;;;;;5034545;28;20052;-71
2023/08/08 12:34:23;;;;;;;6.97;0.77;;;19.10;60.90;;;;;;5054432;28;20107;-71
2023/08/08 12:36:49;;;;;;;3.43;0.57;;;19.10;63.20;;;;;;5061069;28;20037;-71
2023/08/08 12:39:15;;;;;;;6.20;0.67;;;19.40;63.10;;;;;;5041487;28;20069;-71
2023/08/08 12:41:40;;;;;;;4.77;0.70;;;19.60;64.00;;;;;;5054622;28;20080;-71